Time;durP1;ratioP1;P1;durP2;ratioP2;P2;SDS_P1;SDS_P2;PMS_P1;PMS_P2;Temp;Humidity;BMP_temperature;BMP_pressure;BME280_temperature;BME280_humidity;BME280_pressure;Samples;Min_cycle;Max_cycle;Signal;HPM_P1;HPM_P2
2022/10/03 00:01:54;;;;;;;17.27;16.07;;;11.40;99.90;;;;;;5111731;28;20207;-77
2022/10/03 00:04:41;;;;;;;19.13;17.63;;;11.50;99.90;;;;;;5111538;28;20175;-77
2022/10/03 00:07:44;;;;;;;14.87;13.77;;;11.60;99.90;;;;;;5093443;28;20656;-76
2022/10/03 00:10:37;;;;;;;21.80;19.97;;;11.60;99.90;;;;;;5111769;28;20182;-77
2022/10/03 00:13:29;;;;;;;15.03;13.63;;;11.70;99.90;;;;;;5093342;28;20215;-77
2022/10/03 00:16:06;;;;;;;14.63;13.53;;;11.70;99.90;;;;;;5114987;28;20210;-77
2022/10/03 00:18:52;;;;;;;12.97;11.63;;;11.70;99.90;;;;;;5114859;28;20267;-77
2022/10/03 00:21:37;;;;;;;13.40;12.30;;;11.70;99.90;;;;;;5097101;28;20813;-77
2022/10/03 00:24:09;;;;;;;12.30;11.07;;;11.70;99.90;;;;;;5115028;28;20558;-77
2022/10/03 00:27:07;;;;;;;14.83;13.73;;;11.70;99.90;;;;;;5115052;28;20739;-77
2022/10/03 00:29:45;;;;;;;12.20;11.30;;;11.70;99.90;;;;;;5115002;28;20196;-77
2022/10/03 00:32:32;;;;;;;13.57;12.47;;;11.70;99.90;;;;;;5114867;28;20267;-77
2022/10/03 00:35:05;;;;;;;13.17;12.00;;;11.70;99.90;;;;;;5096652;28;20255;-77
2022/10/03 00:37:49;;;;;;;15.43;14.33;;;11.80;99.90;;;;;;5114715;28;20188;-77
2022/10/03 00:40:30;;;;;;;18.67;17.07;;;11.80;99.90;;;;;;5096719;28;20641;-77
2022/10/03 00:43:53;;;;;;;28.63;26.63;;;11.70;99.90;;;;;;5114722;28;20267;-77
2022/10/03 00:46:25;;;;;;;49.60;46.37;;;11.80;99.90;;;;;;5051708;28;20202;-77
2022/10/03 00:49:06;;;;;;;62.50;58.70;;;11.80;99.90;;;;;;5051215;28;20277;-77
2022/10/03 00:52:09;;;;;;;61.13;57.40;;;11.80;99.90;;;;;;5080459;28;20195;-77
2022/10/03 00:55:02;;;;;;;65.27;61.43;;;11.80;99.90;;;;;;5095369;28;20244;-78
2022/10/03 00:57:57;;;;;;;71.53;66.73;;;11.80;99.90;;;;;;5114000;28;20212;-77
2022/10/03 01:00:34;;;;;;;71.83;67.50;;;11.80;99.90;;;;;;5096617;28;20186;-77
2022/10/03 01:03:38;;;;;;;65.63;61.43;;;11.80;99.90;;;;;;5114308;28;20183;-77
2022/10/03 01:06:15;;;;;;;75.00;70.37;;;11.80;99.90;;;;;;5051042;28;20607;-77
2022/10/03 01:08:43;;;;;;;79.30;74.27;;;11.80;99.90;;;;;;5087801;28;20244;-77
2022/10/03 01:11:34;;;;;;;73.73;68.90;;;11.90;99.90;;;;;;5114341;28;20222;-77
2022/10/03 01:14:09;;;;;;;18.77;17.03;;;11.90;99.90;;;;;;5096022;28;20435;-76
2022/10/03 01:16:43;;;;;;;19.73;17.80;;;11.90;99.90;;;;;;5114160;28;20207;-77
2022/10/03 01:19:18;;;;;;;24.00;22.00;;;11.90;99.90;;;;;;5095766;28;20178;-76
2022/10/03 01:21:59;;;;;;;24.97;22.77;;;11.90;99.90;;;;;;5114102;28;20187;-77
2022/10/03 01:24:52;;;;;;;21.67;19.87;;;11.90;99.90;;;;;;5113521;28;20671;-76
2022/10/03 01:31:01;;;;;;;17.20;15.70;;;11.90;99.90;;;;;;5113897;28;20176;-77
2022/10/03 01:33:42;;;;;;;16.53;13.63;;;11.90;99.90;;;;;;5113794;28;20217;-77
2022/10/03 01:36:27;;;;;;;17.07;14.13;;;12.00;99.90;;;;;;5113927;28;20496;-77
2022/10/03 01:38:59;;;;;;;14.90;13.50;;;12.00;99.90;;;;;;5113674;28;20210;-77
2022/10/03 01:41:57;;;;;;;15.30;13.90;;;12.00;99.90;;;;;;5114108;28;20236;-77
2022/10/03 01:44:31;;;;;;;16.37;14.63;;;12.00;99.90;;;;;;5095662;28;20721;-77
2022/10/03 01:47:15;;;;;;;16.73;15.00;;;12.00;99.90;;;;;;5113309;28;20183;-77
2022/10/03 01:49:47;;;;;;;17.40;15.73;;;12.00;99.90;;;;;;5113500;28;20175;-77
2022/10/03 01:52:23;;;;;;;20.80;16.97;;;11.90;99.90;;;;;;5095251;28;20660;-77
2022/10/03 01:55:08;;;;;;;27.63;25.50;;;12.00;99.90;;;;;;5095407;28;20543;-77
2022/10/03 01:57:40;;;;;;;27.40;25.10;;;12.00;99.90;;;;;;5094825;28;20186;-76
2022/10/03 02:00:24;;;;;;;21.43;19.43;;;12.00;99.90;;;;;;5095130;28;20180;-76
2022/10/03 02:03:10;;;;;;;21.77;18.93;;;12.00;99.90;;;;;;5113198;28;20182;-76
2022/10/03 02:05:53;;;;;;;20.93;17.97;;;12.00;99.90;;;;;;5113049;28;20211;-76
2022/10/03 02:08:50;;;;;;;26.30;19.47;;;12.00;99.90;;;;;;5112771;28;20184;-76
2022/10/03 02:11:36;;;;;;;19.50;17.40;;;12.00;99.90;;;;;;5112511;28;20266;-76
2022/10/03 02:14:11;;;;;;;23.60;18.97;;;11.90;99.90;;;;;;5113122;28;20687;-76
2022/10/03 02:16:50;;;;;;;20.53;18.20;;;11.90;99.90;;;;;;5113250;28;20218;-77
2022/10/03 02:19:41;;;;;;;22.83;18.57;;;11.90;99.90;;;;;;5113512;28;20839;-76
2022/10/03 02:22:34;;;;;;;21.73;19.53;;;11.90;99.90;;;;;;5112933;28;20728;-77
2022/10/03 02:25:25;;;;;;;22.57;20.23;;;11.90;99.90;;;;;;5112827;28;20204;-77
2022/10/03 02:28:08;;;;;;;22.47;19.90;;;11.90;99.90;;;;;;5112603;28;20173;-76
2022/10/03 02:30:53;;;;;;;21.57;19.37;;;11.90;99.90;;;;;;5112908;28;20193;-77
2022/10/03 02:33:22;;;;;;;22.23;18.00;;;11.90;99.90;;;;;;5112691;28;20215;-76
2022/10/03 02:36:31;;;;;;;21.17;18.90;;;11.90;99.90;;;;;;5112682;28;20414;-76
2022/10/03 02:39:19;;;;;;;20.93;18.73;;;11.90;99.90;;;;;;5094267;28;20180;-77
2022/10/03 02:42:25;;;;;;;28.40;23.67;;;11.90;99.90;;;;;;5094249;28;20182;-76
2022/10/03 02:45:02;;;;;;;37.30;33.70;;;11.90;99.90;;;;;;5094438;28;20196;-77
2022/10/03 02:47:34;;;;;;;35.27;31.80;;;11.90;99.90;;;;;;5112076;28;20598;-77
2022/10/03 02:50:15;;;;;;;25.00;19.63;;;11.90;99.90;;;;;;5094455;28;20183;-76
2022/10/03 02:53:02;;;;;;;21.27;18.97;;;11.90;99.90;;;;;;5094303;28;20472;-77
2022/10/03 02:56:04;;;;;;;23.17;18.23;;;11.90;99.90;;;;;;5112334;28;20200;-76
2022/10/03 02:58:59;;;;;;;20.77;16.50;;;11.90;99.90;;;;;;5111915;28;20183;-77
2022/10/03 03:01:49;;;;;;;19.37;16.33;;;11.90;99.90;;;;;;5112318;28;20179;-76
2022/10/03 03:04:18;;;;;;;18.90;16.77;;;11.90;99.90;;;;;;5112390;28;20179;-77
2022/10/03 03:07:02;;;;;;;18.90;16.73;;;11.90;99.90;;;;;;5111804;28;20215;-76
2022/10/03 03:10:11;;;;;;;25.50;17.00;;;12.00;99.90;;;;;;5112392;28;20191;-77
2022/10/03 03:13:06;;;;;;;20.33;18.23;;;11.90;99.90;;;;;;5094178;28;20297;-76
2022/10/03 03:16:05;;;;;;;29.37;26.43;;;12.00;99.90;;;;;;5112319;28;20338;-77
2022/10/03 03:18:42;;;;;;;23.77;21.13;;;11.90;99.90;;;;;;5111727;28;20550;-76
2022/10/03 03:21:32;;;;;;;29.77;26.93;;;11.90;99.90;;;;;;5112063;28;20269;-77
2022/10/03 03:24:14;;;;;;;54.13;50.17;;;11.90;99.90;;;;;;5111798;28;20188;-76
2022/10/03 03:26:46;;;;;;;87.53;80.93;;;11.90;99.90;;;;;;5111786;28;20252;-77
2022/10/03 03:29:42;;;;;;;104.90;98.10;;;11.90;99.90;;;;;;5111786;28;20182;-77
2022/10/03 03:32:27;;;;;;;107.17;100.03;;;11.90;99.90;;;;;;5111617;28;20181;-76
2022/10/03 03:34:58;;;;;;;110.13;102.87;;;11.90;99.90;;;;;;5093523;28;20222;-76
2022/10/03 03:37:30;;;;;;;101.27;94.57;;;11.90;99.90;;;;;;5111201;28;20257;-76
2022/10/03 03:40:26;;;;;;;90.93;84.97;;;11.80;99.90;;;;;;5093439;28;20179;-76
2022/10/03 03:43:16;;;;;;;99.47;93.53;;;11.70;99.90;;;;;;5111738;28;20184;-77
2022/10/03 03:45:53;;;;;;;44.30;40.57;;;11.70;99.90;;;;;;5111731;28;20228;-76
2022/10/03 03:48:38;;;;;;;45.10;41.30;;;11.70;99.90;;;;;;5092821;28;20183;-77
2022/10/03 03:51:13;;;;;;;62.67;57.83;;;11.70;99.90;;;;;;5111520;28;20274;-77
2022/10/03 03:53:55;;;;;;;35.03;31.83;;;11.70;99.90;;;;;;5111057;28;20207;-77
2022/10/03 03:56:55;;;;;;;38.20;34.90;;;11.70;99.90;;;;;;5111544;28;20575;-76
2022/10/03 03:59:29;;;;;;;42.53;38.90;;;11.70;99.90;;;;;;5111136;28;20281;-77
2022/10/03 04:02:20;;;;;;;46.23;42.23;;;11.70;99.90;;;;;;5093210;28;20179;-76
2022/10/03 04:04:54;;;;;;;53.03;48.73;;;11.70;99.90;;;;;;5092898;28;20204;-77
2022/10/03 04:07:23;;;;;;;50.87;47.03;;;11.70;99.90;;;;;;5110836;28;20310;-76
2022/10/03 04:09:58;;;;;;;26.63;24.10;;;11.70;99.90;;;;;;5093173;28;20178;-76
2022/10/03 04:12:59;;;;;;;21.63;19.53;;;11.70;99.90;;;;;;5092950;28;20668;-76
2022/10/03 04:15:31;;;;;;;20.40;16.37;;;11.70;99.90;;;;;;5093033;28;20203;-77
2022/10/03 04:21:08;;;;;;;20.83;15.83;;;11.70;99.90;;;;;;5111214;28;20230;-76
2022/10/03 04:23:50;;;;;;;17.60;15.70;;;11.60;99.90;;;;;;5111068;28;20195;-76
2022/10/03 04:26:51;;;;;;;22.53;17.37;;;11.60;99.90;;;;;;5111074;28;20197;-77
2022/10/03 04:29:35;;;;;;;21.00;18.93;;;11.60;99.90;;;;;;5085905;28;20224;-76
2022/10/03 04:32:33;;;;;;;21.43;19.43;;;11.60;99.90;;;;;;5111210;28;20672;-77
2022/10/03 04:35:36;;;;;;;29.37;26.53;;;11.60;99.90;;;;;;5092785;28;20278;-77
2022/10/03 04:38:05;;;;;;;33.60;30.90;;;11.60;99.90;;;;;;5110612;28;20176;-76
2022/10/03 04:41:03;;;;;;;25.47;23.20;;;11.60;99.90;;;;;;5093107;28;20274;-77
2022/10/03 04:43:54;;;;;;;21.33;19.33;;;11.60;99.90;;;;;;5090273;28;20190;-76
2022/10/03 04:46:56;;;;;;;18.57;16.53;;;11.70;99.90;;;;;;5093153;28;20196;-76
2022/10/03 04:49:31;;;;;;;16.87;14.63;;;11.70;99.90;;;;;;5092926;28;20216;-77
2022/10/03 04:52:24;;;;;;;16.93;15.13;;;11.70;99.90;;;;;;5092805;28;20223;-76
2022/10/03 04:55:09;;;;;;;15.87;14.37;;;11.70;99.90;;;;;;5110784;28;20208;-76
2022/10/03 04:58:06;;;;;;;17.07;15.00;;;11.70;99.90;;;;;;5110457;28;20183;-76
2022/10/03 05:00:53;;;;;;;17.53;15.37;;;11.80;99.90;;;;;;5094296;28;20562;-76
2022/10/03 05:03:47;;;;;;;17.70;15.80;;;11.70;99.90;;;;;;5096279;28;20175;-76
2022/10/03 05:06:29;;;;;;;17.37;15.10;;;11.70;99.90;;;;;;5108615;28;20288;-76
2022/10/03 05:08:58;;;;;;;18.27;15.77;;;11.70;99.90;;;;;;5113916;28;20191;-76
2022/10/03 05:11:53;;;;;;;30.57;27.73;;;11.70;99.90;;;;;;5114371;28;20175;-76
2022/10/03 05:14:37;;;;;;;34.03;31.37;;;11.70;99.90;;;;;;5089168;28;20224;-76
2022/10/03 05:17:20;;;;;;;32.93;30.53;;;11.70;99.90;;;;;;5095810;28;20449;-77
2022/10/03 05:20:11;;;;;;;72.97;68.20;;;11.70;99.90;;;;;;5095899;28;20547;-76
2022/10/03 05:22:48;;;;;;;81.17;76.20;;;11.70;99.90;;;;;;5114104;28;20179;-76
2022/10/03 05:25:24;;;;;;;44.47;41.37;;;11.70;99.90;;;;;;5114105;28;20196;-76
2022/10/03 05:28:05;;;;;;;58.57;54.37;;;11.60;99.90;;;;;;5095597;28;20209;-76
2022/10/03 05:30:57;;;;;;;47.37;43.97;;;11.60;99.90;;;;;;5113877;28;20303;-76
2022/10/03 05:33:28;;;;;;;94.33;88.07;;;11.60;99.90;;;;;;5095658;28;20223;-76
2022/10/03 05:36:11;;;;;;;21.93;19.67;;;11.60;99.90;;;;;;5113832;28;20283;-76
2022/10/03 05:38:58;;;;;;;19.73;16.73;;;11.60;99.90;;;;;;5095211;28;20186;-76
2022/10/03 05:41:34;;;;;;;46.43;42.57;;;11.50;99.90;;;;;;5113692;28;20177;-77
2022/10/03 05:44:00;;;;;;;87.80;82.43;;;11.50;99.90;;;;;;5095400;28;20179;-77
2022/10/03 05:46:50;;;;;;;65.83;61.47;;;11.60;99.90;;;;;;5095579;28;20691;-76
2022/10/03 05:50:04;;;;;;;29.73;27.13;;;11.60;99.90;;;;;;5113362;28;20184;-76
2022/10/03 05:53:02;;;;;;;22.53;20.37;;;11.60;99.90;;;;;;5033682;28;20584;-76
2022/10/03 05:55:41;;;;;;;19.27;17.57;;;11.60;99.90;;;;;;5050586;28;20221;-76
2022/10/03 05:58:16;;;;;;;21.80;16.30;;;11.60;99.90;;;;;;5100400;28;20710;-76
2022/10/03 06:00:57;;;;;;;18.33;16.03;;;11.60;99.90;;;;;;5113475;28;20168;-76
2022/10/03 06:03:22;;;;;;;35.30;32.63;;;11.60;99.90;;;;;;5095313;28;20172;-76
2022/10/03 06:06:09;;;;;;;61.33;57.43;;;11.50;99.90;;;;;;5094932;28;20718;-76
2022/10/03 06:08:40;;;;;;;38.60;35.90;;;11.50;99.90;;;;;;5112914;28;20643;-76
2022/10/03 06:11:25;;;;;;;22.73;20.57;;;11.40;99.90;;;;;;5113084;28;20209;-77
2022/10/03 06:14:14;;;;;;;32.87;24.87;;;11.40;99.90;;;;;;5094770;28;20216;-76
2022/10/03 06:17:00;;;;;;;25.40;22.13;;;11.40;99.90;;;;;;5112937;28;20200;-76
2022/10/03 06:19:38;;;;;;;41.70;30.23;;;11.40;99.90;;;;;;5112919;28;20263;-76
2022/10/03 06:22:07;;;;;;;34.80;27.37;;;11.50;99.90;;;;;;5094712;28;20191;-76
2022/10/03 06:25:20;;;;;;;29.03;25.70;;;11.50;99.90;;;;;;5112765;28;20609;-76
2022/10/03 06:28:05;;;;;;;25.33;22.80;;;11.50;99.90;;;;;;5061133;28;20191;-77
2022/10/03 06:30:57;;;;;;;24.87;22.33;;;11.60;99.90;;;;;;5112647;28;20205;-76
2022/10/03 06:34:13;;;;;;;27.23;21.97;;;11.70;99.90;;;;;;5112504;28;20264;-76
2022/10/03 06:37:06;;;;;;;30.37;22.13;;;11.70;99.90;;;;;;5112504;28;20192;-75
2022/10/03 06:39:50;;;;;;;30.83;24.03;;;11.80;99.90;;;;;;5109328;28;20203;-75
2022/10/03 06:42:54;;;;;;;31.97;23.37;;;11.80;99.90;;;;;;5112866;28;20187;-76
2022/10/03 06:45:29;;;;;;;31.93;26.37;;;11.90;99.90;;;;;;5094922;28;20270;-76
2022/10/03 06:48:24;;;;;;;27.23;21.33;;;12.00;99.90;;;;;;5094797;28;20211;-76
2022/10/03 06:51:00;;;;;;;25.30;21.63;;;12.20;99.90;;;;;;5104418;28;20653;-75
2022/10/03 06:53:42;;;;;;;63.07;58.13;;;12.30;99.90;;;;;;5112078;28;20251;-75
2022/10/03 06:56:30;;;;;;;61.43;56.43;;;12.30;99.90;;;;;;5111819;28;20207;-75
2022/10/03 06:59:06;;;;;;;29.00;25.90;;;12.40;99.90;;;;;;5093872;28;20715;-75
2022/10/03 07:01:42;;;;;;;67.33;62.17;;;12.40;99.90;;;;;;5094256;28;20187;-75
2022/10/03 07:04:45;;;;;;;76.43;70.83;;;12.50;99.90;;;;;;5112484;28;20184;-75
2022/10/03 07:07:49;;;;;;;91.97;85.67;;;12.60;99.90;;;;;;5111670;28;20779;-75
2022/10/03 07:10:28;;;;;;;92.20;85.83;;;12.60;99.90;;;;;;5093668;28;20180;-75
2022/10/03 07:13:22;;;;;;;90.47;84.37;;;12.80;99.90;;;;;;5111779;28;20204;-75
2022/10/03 07:16:25;;;;;;;98.73;91.67;;;12.80;99.90;;;;;;5093840;28;20196;-75
2022/10/03 07:19:10;;;;;;;118.10;110.53;;;12.80;99.90;;;;;;5056694;28;20510;-75
2022/10/03 07:22:00;;;;;;;120.90;113.07;;;12.80;99.90;;;;;;5093797;28;20171;-76
2022/10/03 07:25:03;;;;;;;143.87;134.93;;;12.80;99.90;;;;;;5111312;28;20206;-76
2022/10/03 07:28:12;;;;;;;69.30;64.27;;;12.80;99.90;;;;;;5093405;28;20186;-75
2022/10/03 07:31:06;;;;;;;33.00;29.80;;;12.70;99.90;;;;;;5111563;28;20194;-75
2022/10/03 07:34:05;;;;;;;34.90;31.80;;;12.70;99.90;;;;;;5111775;28;20203;-76
2022/10/03 07:40:03;;;;;;;70.30;64.67;;;12.70;99.90;;;;;;5111356;28;20184;-75
2022/10/03 07:42:35;;;;;;;41.13;37.47;;;12.90;99.90;;;;;;5093274;28;20538;-75
2022/10/03 07:45:22;;;;;;;52.03;47.60;;;13.00;99.90;;;;;;5111274;28;20279;-75
2022/10/03 07:48:16;;;;;;;81.27;75.80;;;13.10;99.90;;;;;;5110958;28;20203;-75
2022/10/03 07:50:54;;;;;;;31.00;28.00;;;13.20;99.90;;;;;;5111392;28;20186;-76
2022/10/03 07:53:38;;;;;;;85.83;79.60;;;13.10;99.90;;;;;;5093141;28;20203;-75
2022/10/03 07:56:31;;;;;;;138.77;130.03;;;13.20;99.90;;;;;;5111094;28;20231;-74
2022/10/03 07:59:16;;;;;;;90.53;84.17;;;13.20;99.90;;;;;;5110933;28;20214;-75
2022/10/03 08:02:24;;;;;;;63.83;59.50;;;13.40;99.90;;;;;;5111262;28;20652;-75
2022/10/03 08:05:10;;;;;;;85.50;79.97;;;13.50;99.90;;;;;;5081661;28;20692;-75
2022/10/03 08:08:13;;;;;;;29.37;26.50;;;13.60;99.90;;;;;;5092759;28;20180;-75
2022/10/03 08:11:14;;;;;;;37.83;33.93;;;13.70;99.90;;;;;;5093252;28;20621;-75
2022/10/03 08:14:18;;;;;;;33.43;30.50;;;13.80;99.90;;;;;;5110625;28;20882;-75
2022/10/03 08:17:00;;;;;;;29.57;26.80;;;13.80;99.90;;;;;;5110366;28;20196;-75
2022/10/03 08:19:56;;;;;;;31.53;28.53;;;13.90;99.90;;;;;;5110543;28;20230;-75
2022/10/03 08:23:00;;;;;;;35.23;31.97;;;14.10;99.90;;;;;;5110810;28;20180;-75
2022/10/03 08:25:36;;;;;;;32.47;29.50;;;14.10;99.90;;;;;;5030848;28;20197;-75
2022/10/03 08:28:19;;;;;;;32.13;29.27;;;14.10;99.90;;;;;;5085708;28;20187;-75
2022/10/03 08:31:03;;;;;;;50.57;46.37;;;14.20;99.90;;;;;;5092346;28;20188;-75
2022/10/03 08:33:45;;;;;;;38.30;35.30;;;14.30;99.90;;;;;;5110332;28;20211;-74
2022/10/03 08:36:38;;;;;;;45.13;41.63;;;14.50;99.90;;;;;;5094645;28;20773;-75
2022/10/03 08:39:32;;;;;;;51.50;47.40;;;14.70;99.90;;;;;;5095882;28;20176;-75
2022/10/03 08:42:16;;;;;;;65.87;61.47;;;14.80;99.90;;;;;;5114119;28;20562;-76
2022/10/03 08:45:00;;;;;;;55.17;51.23;;;14.80;99.90;;;;;;5114348;28;20283;-76
2022/10/03 08:47:56;;;;;;;84.40;79.20;;;15.00;99.90;;;;;;5096214;28;20202;-76
2022/10/03 08:51:18;;;;;;;70.57;66.07;;;15.60;99.90;;;;;;5114777;28;20289;-76
2022/10/03 08:54:12;;;;;;;25.57;23.40;;;16.30;99.90;;;;;;5035143;28;21078;-76
2022/10/03 08:56:59;;;;;;;18.53;17.03;;;16.30;99.90;;;;;;5035179;28;20203;-76
2022/10/03 08:59:49;;;;;;;24.30;22.20;;;16.00;99.90;;;;;;5101579;28;20570;-76
2022/10/03 09:02:52;;;;;;;32.47;29.97;;;15.40;99.90;;;;;;5096173;28;20275;-76
2022/10/03 09:05:36;;;;;;;31.10;28.57;;;14.90;99.90;;;;;;5095912;28;20215;-75
2022/10/03 09:08:20;;;;;;;58.97;55.00;;;14.60;99.90;;;;;;5095972;28;20176;-75
2022/10/03 09:11:00;;;;;;;22.83;20.80;;;14.20;99.90;;;;;;5114326;28;20605;-77
2022/10/03 09:13:47;;;;;;;39.00;36.30;;;14.10;99.90;;;;;;5096334;28;20208;-76
2022/10/03 09:16:50;;;;;;;72.13;67.37;;;14.30;99.90;;;;;;5113706;28;20200;-76
2022/10/03 09:19:38;;;;;;;56.23;52.57;;;14.20;99.90;;;;;;5114339;28;20656;-76
2022/10/03 09:22:45;;;;;;;45.27;42.17;;;14.40;99.90;;;;;;5096215;28;20229;-76
2022/10/03 09:25:39;;;;;;;25.77;23.87;;;14.40;99.90;;;;;;5114511;28;20204;-75
2022/10/03 09:28:43;;;;;;;31.00;28.47;;;14.50;99.90;;;;;;5095945;28;20188;-74
2022/10/03 09:31:45;;;;;;;43.20;39.97;;;14.40;99.90;;;;;;5095670;28;20184;-74
2022/10/03 09:34:30;;;;;;;34.20;31.47;;;14.40;99.90;;;;;;5113818;28;20212;-74
2022/10/03 09:37:38;;;;;;;54.50;50.40;;;14.50;99.90;;;;;;5113264;28;20176;-74
2022/10/03 09:40:45;;;;;;;35.37;32.97;;;14.40;99.90;;;;;;5113732;28;20180;-75
2022/10/03 09:43:49;;;;;;;31.80;29.33;;;14.70;99.90;;;;;;5095657;28;20214;-75
2022/10/03 09:46:18;;;;;;;26.83;24.83;;;15.50;99.90;;;;;;5113271;28;20684;-77
2022/10/03 09:48:59;;;;;;;16.13;14.37;;;16.90;99.90;;;;;;5095161;28;20317;-75
2022/10/03 09:52:07;;;;;;;37.23;34.60;;;18.50;99.90;;;;;;5095489;28;20195;-74
2022/10/03 09:55:14;;;;;;;24.37;22.73;;;20.10;99.90;;;;;;5095178;28;20647;-74
2022/10/03 09:57:47;;;;;;;8.03;7.17;;;21.20;99.90;;;;;;5082059;28;20253;-75
2022/10/03 10:00:19;;;;;;;11.87;8.93;;;20.30;99.90;;;;;;5113397;28;20184;-75
2022/10/03 10:03:06;;;;;;;10.87;8.47;;;19.00;99.90;;;;;;5095076;28;20188;-75
2022/10/03 10:05:44;;;;;;;11.80;9.17;;;18.00;99.90;;;;;;5095425;28;20211;-76
2022/10/03 10:08:20;;;;;;;8.33;7.50;;;17.10;99.90;;;;;;5094678;28;20176;-77
2022/10/03 10:10:59;;;;;;;10.77;8.57;;;16.50;99.90;;;;;;5112690;28;20180;-75
2022/10/03 10:13:49;;;;;;;10.87;7.90;;;16.10;99.90;;;;;;5112937;28;20294;-76
2022/10/03 10:16:55;;;;;;;11.30;8.50;;;16.10;99.90;;;;;;5112903;28;20196;-76
2022/10/03 10:19:51;;;;;;;10.43;7.90;;;16.10;99.90;;;;;;5113138;28;20207;-76
2022/10/03 10:22:41;;;;;;;11.40;9.40;;;16.10;99.90;;;;;;5112707;28;20199;-76
2022/10/03 10:25:28;;;;;;;11.30;9.17;;;16.00;99.90;;;;;;5094610;28;20253;-75
2022/10/03 10:28:21;;;;;;;13.47;10.33;;;16.00;99.90;;;;;;5094222;28;20212;-75
2022/10/03 10:31:05;;;;;;;31.37;29.17;;;16.20;99.90;;;;;;5094772;28;20191;-76
2022/10/03 10:33:51;;;;;;;12.17;8.17;;;17.50;99.90;;;;;;5112655;28;20649;-76
2022/10/03 10:36:54;;;;;;;9.87;8.87;;;19.70;99.90;;;;;;5112533;28;20204;-75
2022/10/03 10:40:00;;;;;;;10.33;8.70;;;20.90;99.90;;;;;;5112374;28;20312;-75
2022/10/03 10:42:50;;;;;;;26.40;24.30;;;20.60;99.90;;;;;;5112370;28;20267;-75
2022/10/03 10:45:23;;;;;;;10.30;9.30;;;19.50;99.90;;;;;;5113375;28;20571;-74
2022/10/03 10:48:07;;;;;;;14.50;8.80;;;18.30;99.90;;;;;;5112059;28;20585;-79
2022/10/03 10:51:09;;;;;;;13.87;9.73;;;17.00;99.90;;;;;;5112330;28;20200;-75
2022/10/03 10:54:03;;;;;;;16.17;12.47;;;16.50;99.90;;;;;;5112276;28;20216;-75
2022/10/03 10:56:56;;;;;;;17.17;12.27;;;16.40;99.90;;;;;;5094362;28;20196;-75
2022/10/03 10:59:40;;;;;;;15.00;9.00;;;16.40;99.90;;;;;;5111621;28;20212;-77
2022/10/03 11:02:27;;;;;;;13.33;8.53;;;16.30;99.90;;;;;;5112180;28;20176;-76
2022/10/03 11:05:44;;;;;;;10.70;8.43;;;16.20;99.90;;;;;;5093938;28;20261;-75
2022/10/03 11:08:35;;;;;;;14.43;7.63;;;16.40;99.90;;;;;;5093779;28;20180;-77
2022/10/03 11:11:42;;;;;;;10.90;8.87;;;17.00;99.90;;;;;;5093968;28;20231;-77
2022/10/03 11:14:45;;;;;;;11.20;9.90;;;18.70;99.90;;;;;;5090873;28;20647;-76
2022/10/03 11:17:56;;;;;;;13.67;8.53;;;20.60;99.90;;;;;;5093425;28;20263;-75
2022/10/03 11:21:06;;;;;;;15.33;14.07;;;21.70;99.90;;;;;;5083031;28;20188;-75
2022/10/03 11:24:02;;;;;;;38.27;35.67;;;22.30;99.90;;;;;;5112032;28;20259;-76
2022/10/03 11:27:06;;;;;;;21.47;19.80;;;21.80;99.90;;;;;;5111702;28;20222;-77
2022/10/03 11:30:10;;;;;;;23.27;21.67;;;20.70;99.90;;;;;;5111599;28;20704;-75
2022/10/03 11:32:50;;;;;;;29.93;28.17;;;20.20;99.90;;;;;;5093515;28;20612;-75
2022/10/03 11:35:49;;;;;;;21.93;20.50;;;21.20;99.90;;;;;;5093556;28;20200;-76
2022/10/03 11:38:21;;;;;;;7.77;7.10;;;22.40;99.90;;;;;;5059515;28;20672;-76
2022/10/03 11:41:07;;;;;;;10.00;7.27;;;22.60;99.90;;;;;;5111642;28;20467;-76
2022/10/03 11:44:06;;;;;;;9.43;8.63;;;22.70;99.90;;;;;;5093346;28;20185;-76
2022/10/03 11:46:59;;;;;;;8.13;7.33;;;20.80;99.90;;;;;;5111755;28;20203;-76
2022/10/03 11:49:43;;;;;;;7.63;6.23;;;19.60;99.90;;;;;;5111428;28;20602;-76
2022/10/03 11:52:39;;;;;;;9.90;8.40;;;18.80;99.90;;;;;;5111400;28;20219;-75
2022/10/03 11:55:28;;;;;;;13.17;11.87;;;18.20;99.90;;;;;;5093418;28;20211;-75
2022/10/03 11:58:10;;;;;;;31.50;28.93;;;17.60;99.90;;;;;;5111235;28;20187;-76
2022/10/03 12:00:40;;;;;;;29.07;27.03;;;17.20;99.90;;;;;;5093125;28;20321;-75
2022/10/03 12:03:09;;;;;;;16.60;15.33;;;17.10;99.90;;;;;;5093289;28;20204;-77
2022/10/03 12:05:38;;;;;;;11.83;10.73;;;17.00;99.90;;;;;;5092845;28;20220;-76
2022/10/03 12:11:26;;;;;;;10.67;9.30;;;16.40;99.90;;;;;;5115740;28;20542;-75
2022/10/03 12:14:36;;;;;;;7.00;6.30;;;16.20;99.90;;;;;;5097159;28;20772;-75
2022/10/03 12:17:26;;;;;;;10.63;6.53;;;16.00;99.90;;;;;;5071739;28;20187;-76
2022/10/03 12:20:13;;;;;;;15.90;6.67;;;16.00;99.90;;;;;;5072286;28;20186;-76
2022/10/03 12:22:53;;;;;;;14.87;6.83;;;16.10;99.90;;;;;;5088963;28;20894;-76
2022/10/03 12:25:29;;;;;;;8.97;8.03;;;16.30;99.90;;;;;;5115281;28;20249;-76
2022/10/03 12:28:11;;;;;;;9.70;7.30;;;16.60;99.90;;;;;;5096616;28;20210;-76
2022/10/03 12:30:49;;;;;;;9.27;6.93;;;16.90;99.90;;;;;;5096977;28;20180;-76
2022/10/03 12:33:42;;;;;;;11.07;6.50;;;17.00;99.90;;;;;;5115007;28;20218;-76
2022/10/03 12:36:14;;;;;;;12.23;10.23;;;17.20;99.90;;;;;;5114993;28;20273;-76
2022/10/03 12:39:12;;;;;;;17.23;15.93;;;17.60;99.90;;;;;;5096454;28;20656;-76
2022/10/03 12:41:56;;;;;;;23.07;21.33;;;17.80;99.90;;;;;;5114789;28;20591;-76
2022/10/03 12:44:40;;;;;;;38.30;35.13;;;18.20;99.90;;;;;;5096624;28;20688;-76
2022/10/03 12:47:12;;;;;;;23.57;21.93;;;18.50;99.90;;;;;;5096544;28;20716;-76
2022/10/03 12:49:41;;;;;;;32.57;30.30;;;19.00;99.90;;;;;;5114706;28;20188;-76
2022/10/03 12:52:19;;;;;;;12.17;11.07;;;19.40;99.90;;;;;;5114628;28;20266;-76
2022/10/03 12:54:55;;;;;;;9.27;8.47;;;20.00;99.90;;;;;;5096196;28;20211;-76
2022/10/03 12:57:30;;;;;;;9.07;6.33;;;21.50;99.90;;;;;;5096553;28;20545;-76
2022/10/03 13:00:02;;;;;;;9.47;8.57;;;21.40;99.90;;;;;;5114910;28;20183;-76
2022/10/03 13:02:40;;;;;;;11.30;5.73;;;20.50;99.90;;;;;;5096320;28;20203;-76
2022/10/03 13:05:27;;;;;;;8.40;6.10;;;19.70;99.90;;;;;;5114276;28;20643;-76
2022/10/03 13:08:26;;;;;;;9.50;8.50;;;18.90;99.90;;;;;;5114051;28;20653;-76
2022/10/03 13:11:05;;;;;;;8.33;7.53;;;18.40;99.90;;;;;;5114273;28;20183;-76
2022/10/03 13:13:55;;;;;;;19.70;17.83;;;18.10;99.90;;;;;;5114319;28;20204;-76
2022/10/03 13:16:29;;;;;;;12.13;10.93;;;17.90;99.90;;;;;;5085614;28;20204;-76
2022/10/03 13:19:03;;;;;;;17.00;15.63;;;18.10;99.90;;;;;;5114292;28;20184;-76
2022/10/03 13:21:48;;;;;;;18.40;17.07;;;18.20;99.90;;;;;;5095538;28;20271;-76
2022/10/03 13:24:41;;;;;;;19.80;18.20;;;18.30;99.90;;;;;;5113991;28;20176;-76
2022/10/03 13:27:16;;;;;;;11.87;10.07;;;18.40;99.90;;;;;;5095498;28;20183;-76
2022/10/03 13:29:48;;;;;;;14.70;13.17;;;18.80;99.90;;;;;;5113809;28;20625;-76
2022/10/03 13:32:28;;;;;;;10.97;9.77;;;19.10;99.90;;;;;;5113964;28;20666;-76
2022/10/03 13:38:18;;;;;;;9.07;8.27;;;19.20;99.90;;;;;;5113493;28;20180;-76
2022/10/03 13:40:55;;;;;;;13.33;10.40;;;19.20;99.90;;;;;;5114093;28;20240;-77
2022/10/03 13:43:33;;;;;;;8.20;6.93;;;19.20;99.90;;;;;;5113942;28;20180;-75
2022/10/03 13:46:01;;;;;;;10.60;9.60;;;18.90;99.90;;;;;;5095617;28;20230;-76
2022/10/03 13:48:28;;;;;;;11.73;10.93;;;18.60;99.90;;;;;;5113304;28;20176;-76
2022/10/03 13:51:20;;;;;;;11.53;10.53;;;18.60;99.90;;;;;;5096391;28;20184;-76
2022/10/03 13:54:07;;;;;;;12.77;11.63;;;18.60;99.90;;;;;;5095700;28;20224;-76
2022/10/03 13:56:50;;;;;;;11.40;10.30;;;18.60;99.90;;;;;;5114555;28;20204;-76
2022/10/03 13:59:38;;;;;;;12.27;11.40;;;18.50;99.90;;;;;;5114582;28;20724;-75
2022/10/03 14:02:42;;;;;;;12.57;11.57;;;18.50;99.90;;;;;;5102505;28;20180;-76
2022/10/03 14:05:18;;;;;;;14.80;10.00;;;18.60;99.90;;;;;;5091380;28;20208;-77
2022/10/03 14:07:56;;;;;;;12.57;11.37;;;18.50;99.90;;;;;;5092620;28;20725;-77
2022/10/03 14:10:34;;;;;;;19.23;17.77;;;18.20;99.90;;;;;;5092672;28;20180;-77
2022/10/03 14:13:11;;;;;;;22.60;20.60;;;18.00;99.90;;;;;;5091685;28;20736;-77
2022/10/03 14:16:12;;;;;;;20.60;19.23;;;18.00;99.90;;;;;;5092585;28;20200;-77
2022/10/03 14:18:49;;;;;;;19.60;17.97;;;18.10;99.90;;;;;;5091260;28;20591;-77
2022/10/03 14:21:23;;;;;;;20.53;18.90;;;18.10;99.90;;;;;;5091655;28;20183;-78
2022/10/03 14:24:38;;;;;;;24.20;22.10;;;18.10;99.90;;;;;;5110281;27;20209;-77